Raska — YT2162 — position and weather

sailwx.info

Track history (hours):
 
Tides and Currents Weather Stations Pressure Air Temp Water Temp Dewpoint Dewpoint Depression Visibility Wind Speed Wind Dir Waves Ship Positions

Raska

Last reported at 2018-Jun-21 04:30 UTC. Time now 2018-Jun-21 04:42 UTC.
Position N 44°51' E 020°38'.

Length 16 m; draft 1.4 m.

Type: Wing in ground effect craft. MMSI: 279202162.

Date/timePositionNaut miles runAvg speedWind from/ knotsBaromVisibWave heightAir tempDewpointWater temp
2018-Jun-21 04:30N 44°51' E 020°38'0 0.0
2018-Jun-21 04:00N 44°51' E 020°38'0 0.0
2018-Jun-21 03:30N 44°51' E 020°38'0 0.0
2018-Jun-21 03:00N 44°51' E 020°38'0 0.0
2018-Jun-21 02:31N 44°51' E 020°38'0 0.0
2018-Jun-21 02:00N 44°51' E 020°38'0 0.0
2018-Jun-21 01:30N 44°51' E 020°38'0 0.0
2018-Jun-21 01:00N 44°51' E 020°38'0 0.0
2018-Jun-21 00:30N 44°51' E 020°38'0 0.0
2018-Jun-21 00:01N 44°51' E 020°38'0 0.0
2018-Jun-20 23:30N 44°51' E 020°38'0 0.0
2018-Jun-20 22:59N 44°51' E 020°38'0 0.0
2018-Jun-20 22:30N 44°51' E 020°38'0 0.0
2018-Jun-20 21:58N 44°51' E 020°38'0 0.0
2018-Jun-20 21:30N 44°51' E 020°38'0 0.0
2018-Jun-20 21:00N 44°51' E 020°38'0 0.5
2018-Jun-20 20:31N 44°51' E 020°38'3 6.6
2018-Jun-20 20:01N 44°51' E 020°34'2 4.0
2018-Jun-20 19:31N 44°50' E 020°31'0 0.0
2018-Jun-20 19:01N 44°50' E 020°31'0 0.0
2018-Jun-20 18:31N 44°50' E 020°31'0 0.1
2018-Jun-20 18:01N 44°50' E 020°31'1 2.4
2018-Jun-20 17:30N 44°50' E 020°33'1 2.8
2018-Jun-20 17:01N 44°51' E 020°35'2 3.2
2018-Jun-20 16:31N 44°50' E 020°37'1 2.3
2018-Jun-20 16:01N 44°50' E 020°38'0 0.3
2018-Jun-20 15:30N 44°50' E 020°38'0 0.2
2018-Jun-20 15:00N 44°50' E 020°38'0 0.0
2018-Jun-20 14:30N 44°50' E 020°38'0 0.1
2018-Jun-20 14:01N 44°50' E 020°38'0 0.3
2018-Jun-20 13:31N 44°50' E 020°38'0 0.0
2018-Jun-20 13:00N 44°50' E 020°38'0 0.0
2018-Jun-20 12:30N 44°50' E 020°38'0 0.3
2018-Jun-20 12:00N 44°50' E 020°38'0 0.0
2018-Jun-20 11:30N 44°50' E 020°38'0 0.0
2018-Jun-20 11:00N 44°50' E 020°38'0 0.0
2018-Jun-20 10:30N 44°50' E 020°38'0 0.3
2018-Jun-20 10:00N 44°50' E 020°38'0 0.2
2018-Jun-20 09:31N 44°50' E 020°38'0 0.8
2018-Jun-20 09:01N 44°50' E 020°39'0 0.3
2018-Jun-20 08:31N 44°50' E 020°39'0 0.6
2018-Jun-20 08:01N 44°50' E 020°38'0 0.3
2018-Jun-20 07:31N 44°50' E 020°38'0 0.0
2018-Jun-20 07:01N 44°50' E 020°38'0 0.0
2018-Jun-20 06:30N 44°50' E 020°38'0 0.8
2018-Jun-20 06:01N 44°50' E 020°38'1 2.0
2018-Jun-20 05:31N 44°51' E 020°38'0 0.0
2018-Jun-20 05:01N 44°51' E 020°38'0 0.0
2018-Jun-20 04:31N 44°51' E 020°38'0 0.0
2018-Jun-20 04:01N 44°51' E 020°38'0 0.0
2018-Jun-20 03:31N 44°51' E 020°38'0 0.0
2018-Jun-20 03:01N 44°51' E 020°38'0 0.0
2018-Jun-20 02:31N 44°51' E 020°38'0 0.0
2018-Jun-20 02:00N 44°51' E 020°38'0 0.0
2018-Jun-20 01:30N 44°51' E 020°38'0 0.0
2018-Jun-20 01:01N 44°51' E 020°38'0 0.0
2018-Jun-20 00:30N 44°51' E 020°38'0 0.0
2018-Jun-20 00:00N 44°51' E 020°38'0 0.0
2018-Jun-19 23:31N 44°51' E 020°38'0 0.0
2018-Jun-19 23:01N 44°51' E 020°38'0 0.0
2018-Jun-19 22:31N 44°51' E 020°38'0 0.0
2018-Jun-19 22:01N 44°51' E 020°38'0 0.0
2018-Jun-19 21:31N 44°51' E 020°38'0 0.0
2018-Jun-19 21:01N 44°51' E 020°38'0 0.0
2018-Jun-19 20:31N 44°51' E 020°38'0 0.0
2018-Jun-19 20:00N 44°51' E 020°38'0 0.0
2018-Jun-19 19:31N 44°51' E 020°38'0 0.0
2018-Jun-19 19:01N 44°51' E 020°38'0 0.0
2018-Jun-19 18:31N 44°51' E 020°38'1 1.4
2018-Jun-19 18:01N 44°51' E 020°38'1 1.3
2018-Jun-19 17:31N 44°50' E 020°38'0 0.7
2018-Jun-19 17:01N 44°50' E 020°39'0 0.4
2018-Jun-19 16:31N 44°50' E 020°39'0 0.1
2018-Jun-19 16:01N 44°50' E 020°39'1 1.2
2018-Jun-19 15:31N 44°50' E 020°38'0 0.1
2018-Jun-19 15:01N 44°50' E 020°38'0 0.4
2018-Jun-19 14:30N 44°50' E 020°39'1 2.7
2018-Jun-19 14:01N 44°51' E 020°38'0 0.0
2018-Jun-19 13:31N 44°51' E 020°38'0 0.0
2018-Jun-19 13:01N 44°51' E 020°38'1 2.8
2018-Jun-19 12:31N 44°50' E 020°38'0 0.6
2018-Jun-19 12:00N 44°50' E 020°39'0 0.1
2018-Jun-19 11:30N 44°50' E 020°39'0 0.8
2018-Jun-19 11:00N 44°50' E 020°38'0 0.6
2018-Jun-19 10:30N 44°50' E 020°38'2 3.2
2018-Jun-19 10:00N 44°51' E 020°38'1 2.3
2018-Jun-19 09:30N 44°50' E 020°38'0 0.4
2018-Jun-19 09:00N 44°50' E 020°38'0 0.1
2018-Jun-19 08:30N 44°50' E 020°38'0 0.0
2018-Jun-19 08:00N 44°50' E 020°38'1 1.0
2018-Jun-19 07:30N 44°50' E 020°39'0 0.1
2018-Jun-19 07:00N 44°50' E 020°39'2 3.3
2018-Jun-19 06:31N 44°51' E 020°38'0 0.4
2018-Jun-19 06:01N 44°51' E 020°38'0 0.0
2018-Jun-19 05:31N 44°51' E 020°38'0 0.0
2018-Jun-19 05:00N 44°51' E 020°38'0 0.0
2018-Jun-19 04:30N 44°51' E 020°38'0 0.0
2018-Jun-19 04:01N 44°51' E 020°38'0 0.0
2018-Jun-19 03:31N 44°51' E 020°38'0 0.0
2018-Jun-19 03:01N 44°51' E 020°38'0 0.0
2018-Jun-19 02:30N 44°51' E 020°38'0 0.0
2018-Jun-19 02:01N 44°51' E 020°38'0 0.0
2018-Jun-19 01:30N 44°51' E 020°38'0 0.0
2018-Jun-19 01:00N 44°51' E 020°38'0 0.0
2018-Jun-19 00:30N 44°51' E 020°38'0 0.0
2018-Jun-19 00:00N 44°51' E 020°38'0 0.0
2018-Jun-18 23:31N 44°51' E 020°38'0 0.0
2018-Jun-18 23:01N 44°51' E 020°38'0 0.0
2018-Jun-18 22:31N 44°51' E 020°38'0 0.0
2018-Jun-18 22:01N 44°51' E 020°38'0 0.0
2018-Jun-18 21:30N 44°51' E 020°38'0 0.0
2018-Jun-18 21:00N 44°51' E 020°38'0 0.0
2018-Jun-18 20:30N 44°51' E 020°38'0 0.0
2018-Jun-18 20:01N 44°51' E 020°38'0 0.0
2018-Jun-18 19:31N 44°51' E 020°38'0 0.0
2018-Jun-18 19:01N 44°51' E 020°38'0 0.0
2018-Jun-18 18:30N 44°51' E 020°38'0 0.0
2018-Jun-18 18:00N 44°51' E 020°38'1 2.5
2018-Jun-18 17:30N 44°50' E 020°38'0 0.0
2018-Jun-18 17:01N 44°50' E 020°38'0 0.0
2018-Jun-18 16:31N 44°50' E 020°38'0 0.0
2018-Jun-18 16:01N 44°50' E 020°38'0 0.0
2018-Jun-18 15:31N 44°50' E 020°38'0 0.0
2018-Jun-18 15:01N 44°50' E 020°38'0 0.8
2018-Jun-18 14:31N 44°51' E 020°38'0 0.9
2018-Jun-18 14:01N 44°50' E 020°38'0 0.1
2018-Jun-18 13:31N 44°50' E 020°38'0 0.1
2018-Jun-18 13:01N 44°50' E 020°38'0 0.2
2018-Jun-18 12:31N 44°50' E 020°38'0 0.7
2018-Jun-18 12:01N 44°50' E 020°39'0 0.0
2018-Jun-18 11:31N 44°50' E 020°39'1 1.1
2018-Jun-18 11:00N 44°50' E 020°38'0 0.2
2018-Jun-18 10:30N 44°50' E 020°38'0 0.0
2018-Jun-18 10:00N 44°50' E 020°38'0 0.0
2018-Jun-18 09:30N 44°50' E 020°38'0 0.1
2018-Jun-18 09:00N 44°50' E 020°38'0 0.1
2018-Jun-18 08:30N 44°50' E 020°38'0 0.1
2018-Jun-18 08:00N 44°50' E 020°38'1 1.2
2018-Jun-18 07:30N 44°50' E 020°39'1 2.3
2018-Jun-18 07:00N 44°51' E 020°38'1 1.0
2018-Jun-18 06:17N 44°51' E 020°38'0 0.1
2018-Jun-18 06:00N 44°51' E 020°38'0 0.0
2018-Jun-18 05:30N 44°51' E 020°38'0 0.0
2018-Jun-18 04:59N 44°51' E 020°38'0 0.0
2018-Jun-18 04:30N 44°51' E 020°38'0 0.0
2018-Jun-18 04:00N 44°51' E 020°38'0 0.0
2018-Jun-18 03:28N 44°51' E 020°38'0 0.0
2018-Jun-18 02:59N 44°51' E 020°38'0 0.0
2018-Jun-18 02:30N 44°51' E 020°38'0 0.0
2018-Jun-18 01:57N 44°51' E 020°38'0 0.0
2018-Jun-18 01:30N 44°51' E 020°38'0 0.0
2018-Jun-18 01:00N 44°51' E 020°38'0 0.0
2018-Jun-18 00:17N 44°51' E 020°38'0 0.0
2018-Jun-17 23:58N 44°51' E 020°38'0 0.0
2018-Jun-17 23:30N 44°51' E 020°38'0 0.0
2018-Jun-17 23:00N 44°51' E 020°38'0 0.0
2018-Jun-17 22:28N 44°51' E 020°38'0 0.0
2018-Jun-17 22:00N 44°51' E 020°38'0 0.0
2018-Jun-17 21:02N 44°51' E 020°38'0 0.0
2018-Jun-17 20:42N 44°51' E 020°38'0 0.0
2018-Jun-17 20:25N 44°51' E 020°38'0 0.0
2018-Jun-17 19:59N 44°51' E 020°38'0 0.0
2018-Jun-17 19:28N 44°51' E 020°38'0 0.0
2018-Jun-17 18:38N 44°51' E 020°38'0 0.0
2018-Jun-17 18:30N 44°51' E 020°38'0 0.0
2018-Jun-17 18:00N 44°51' E 020°38'0 0.0
2018-Jun-17 17:31N 44°51' E 020°38'0 0.0
2018-Jun-17 17:00N 44°51' E 020°38'0 0.0
2018-Jun-17 16:30N 44°51' E 020°38'1 2.5
2018-Jun-17 16:00N 44°50' E 020°38'0 0.3
2018-Jun-17 15:30N 44°50' E 020°38'0 0.4
2018-Jun-17 15:00N 44°50' E 020°38'0 0.4
2018-Jun-17 14:30N 44°50' E 020°38'1 2.3
2018-Jun-17 14:00N 44°51' E 020°38'2 3.4
2018-Jun-17 13:30N 44°50' E 020°39'0 0.0
2018-Jun-17 13:00N 44°50' E 020°39'0 0.0
2018-Jun-17 12:30N 44°50' E 020°39'0 0.0
2018-Jun-17 12:00N 44°50' E 020°39'1 1.2
2018-Jun-17 11:30N 44°50' E 020°38'0 0.0
2018-Jun-17 11:00N 44°50' E 020°38'0 0.3
2018-Jun-17 10:31N 44°50' E 020°38'0 0.0
2018-Jun-17 10:01N 44°50' E 020°38'0 0.2
2018-Jun-17 09:31N 44°50' E 020°38'0 0.1
2018-Jun-17 09:00N 44°50' E 020°38'0 0.0
2018-Jun-17 08:31N 44°50' E 020°38'1 1.0
2018-Jun-17 08:01N 44°50' E 020°39'0 0.2
2018-Jun-17 07:31N 44°50' E 020°39'0 0.2
2018-Jun-17 07:01N 44°50' E 020°39'0 0.1
2018-Jun-17 06:30N 44°50' E 020°39'2 3.5
2018-Jun-17 06:01N 44°51' E 020°38'0 0.0
2018-Jun-17 05:31N 44°51' E 020°38'0 0.0
2018-Jun-17 05:00N 44°51' E 020°38'0 0.0
2018-Jun-17 04:31N 44°51' E 020°38'0 0.0
2018-Jun-17 04:01N 44°51' E 020°38'0 0.0
2018-Jun-17 03:30N 44°51' E 020°38'0 0.0
2018-Jun-17 03:00N 44°51' E 020°38'0 0.0
2018-Jun-17 02:29N 44°51' E 020°38'0 0.0
2018-Jun-17 01:59N 44°51' E 020°38'0 0.0
2018-Jun-17 01:30N 44°51' E 020°38'0 0.0
2018-Jun-17 01:00N 44°51' E 020°38'0 0.1
2018-Jun-17 00:31N 44°51' E 020°38'3 4.9
2018-Jun-17 00:00N 44°49' E 020°38'3 5.1
2018-Jun-16 23:30N 44°46' E 020°38'6 4.9
2018-Jun-16 22:21N 44°42' E 020°43'2 5.0
2018-Jun-16 22:00N 44°41' E 020°45'2 4.5
2018-Jun-16 21:30N 44°40' E 020°47'2 4.9
2018-Jun-16 21:00N 44°40' E 020°51'2 4.9
2018-Jun-16 20:30N 44°40' E 020°54'1 1.4
2018-Jun-16 20:00N 44°40' E 020°55'2 3.1
2018-Jun-16 19:31N 44°41' E 020°56'1 1.6
2018-Jun-16 19:00N 44°42' E 020°57'0 0.0
2018-Jun-16 18:31N 44°42' E 020°57'0 0.0
2018-Jun-16 18:01N 44°42' E 020°57'0 0.3
2018-Jun-16 17:31N 44°42' E 020°58'0 0.3
2018-Jun-16 17:00N 44°42' E 020°57'0 0.0
2018-Jun-16 16:30N 44°42' E 020°57'0 0.0
2018-Jun-16 16:01N 44°42' E 020°57'0 0.0
2018-Jun-16 15:31N 44°42' E 020°57'0 0.0
2018-Jun-16 15:01N 44°42' E 020°57'0 0.0
2018-Jun-16 14:31N 44°42' E 020°57'0 0.0
2018-Jun-16 14:01N 44°42' E 020°57'0 0.0
2018-Jun-16 13:30N 44°42' E 020°57'0 0.0
2018-Jun-16 13:01N 44°42' E 020°57'0 0.0
2018-Jun-16 12:30N 44°42' E 020°57'0 0.0
2018-Jun-16 11:55N 44°42' E 020°57'0 0.0
2018-Jun-16 11:31N 44°42' E 020°57'0 0.0
2018-Jun-16 11:00N 44°42' E 020°57'0 0.0
2018-Jun-16 10:30N 44°42' E 020°57'0 0.0
2018-Jun-15 20:48N 44°42' E 020°57'0 0.3
2018-Jun-15 20:30N 44°42' E 020°58'1 1.6
2018-Jun-15 20:01N 44°42' E 020°58'0 0.3
2018-Jun-15 19:31N 44°42' E 020°58'1 1.6
2018-Jun-15 19:00N 44°42' E 020°58'0 0.1
2018-Jun-15 18:29N 44°42' E 020°57'0 0.1
2018-Jun-15 18:01N 44°42' E 020°58'0 0.1
2018-Jun-15 17:30N 44°42' E 020°58'0 0.0
2018-Jun-15 17:00N 44°42' E 020°58'0 0.0
2018-Jun-15 16:30N 44°42' E 020°58'1 1.5
2018-Jun-15 16:00N 44°42' E 020°58'1 1.2
2018-Jun-15 15:30N 44°42' E 020°58'0 0.2
2018-Jun-15 15:00N 44°42' E 020°57'2 0.1
2018-Jun-14 22:14N 44°40' E 020°55'0 0.0
2018-Jun-14 22:00N 44°40' E 020°55'0 0.0
2018-Jun-14 21:30N 44°40' E 020°55'0 0.0
2018-Jun-14 21:00N 44°40' E 020°55'0 0.0
2018-Jun-14 20:30N 44°40' E 020°55'0 0.0
2018-Jun-14 20:00N 44°40' E 020°55'0 0.0
2018-Jun-14 19:30N 44°40' E 020°55'0 0.0
2018-Jun-14 19:00N 44°40' E 020°55'0 0.0
2018-Jun-14 18:30N 44°40' E 020°55'0 0.0
2018-Jun-14 18:00N 44°40' E 020°55'0 0.0
2018-Jun-14 17:30N 44°40' E 020°55'0 0.0
2018-Jun-14 17:00N 44°40' E 020°55'0 0.0
2018-Jun-14 16:31N 44°40' E 020°55'0 0.0
2018-Jun-14 16:01N 44°40' E 020°55'0 0.0
2018-Jun-14 15:31N 44°40' E 020°55'0 0.0
2018-Jun-14 15:00N 44°40' E 020°55'0 0.0
2018-Jun-14 14:30N 44°40' E 020°55'0 0.0
2018-Jun-14 14:01N 44°40' E 020°55'0 0.0
2018-Jun-14 13:30N 44°40' E 020°55'0 0.0
2018-Jun-14 13:00N 44°40' E 020°55'0 0.0
2018-Jun-14 12:30N 44°40' E 020°55'0 0.0
2018-Jun-14 12:00N 44°40' E 020°55'0 0.0
2018-Jun-14 11:30N 44°40' E 020°55'0 0.0
2018-Jun-14 11:00N 44°40' E 020°55'0 0.0
2018-Jun-14 10:30N 44°40' E 020°55'0 0.0
2018-Jun-14 10:00N 44°40' E 020°55'0 0.0
2018-Jun-14 09:30N 44°40' E 020°55'0 0.0
2018-Jun-14 09:00N 44°40' E 020°55'0 0.0
2018-Jun-14 08:30N 44°40' E 020°55'0 0.0
2018-Jun-14 08:00N 44°40' E 020°55'0 0.0
2018-Jun-14 07:17N 44°40' E 020°55'0 0.0
2018-Jun-13 23:38N 44°40' E 020°55'0 0.0
2018-Jun-13 23:30N 44°40' E 020°55'0 0.0
2018-Jun-13 23:00N 44°40' E 020°55'0 0.0
2018-Jun-13 22:30N 44°40' E 020°55'0 0.0
2018-Jun-13 22:00N 44°40' E 020°55'0 0.0
2018-Jun-13 21:30N 44°40' E 020°55'0 0.0
2018-Jun-13 21:00N 44°40' E 020°55'0 0.0
2018-Jun-13 20:30N 44°40' E 020°55'0 0.0
2018-Jun-13 20:00N 44°40' E 020°55'0 0.0
2018-Jun-13 19:30N 44°40' E 020°55'0 0.0
2018-Jun-13 19:00N 44°40' E 020°55'0 0.0
2018-Jun-13 18:30N 44°40' E 020°55'0 0.0
2018-Jun-13 18:00N 44°40' E 020°55'0 0.0
2018-Jun-13 17:30N 44°40' E 020°55'0 0.0
2018-Jun-13 17:01N 44°40' E 020°55'0 0.0
2018-Jun-13 16:30N 44°40' E 020°55'0 0.0
2018-Jun-13 16:00N 44°40' E 020°55'0 0.0
2018-Jun-13 15:30N 44°40' E 020°55'0 0.0
2018-Jun-13 15:00N 44°40' E 020°55'0 0.0
2018-Jun-13 14:30N 44°40' E 020°55'0 0.0
2018-Jun-13 14:00N 44°40' E 020°55'0 0.0
2018-Jun-13 13:30N 44°40' E 020°55'0 0.0
2018-Jun-13 13:00N 44°40' E 020°55'0 0.1
2018-Jun-13 12:31N 44°40' E 020°55'2 3.9
2018-Jun-13 12:01N 44°41' E 020°57'0 0.7
2018-Jun-13 11:30N 44°42' E 020°57'0 0.2
2018-Jun-13 11:01N 44°42' E 020°58'0 0.0
2018-Jun-13 10:30N 44°42' E 020°58'0 0.0
2018-Jun-13 09:54N 44°42' E 020°57'0 0.0
2018-Jun-13 09:31N 44°42' E 020°57'0 0.0
2018-Jun-13 09:00N 44°42' E 020°57'0 0.0
2018-Jun-13 08:30N 44°42' E 020°57'0 0.1
2018-Jun-13 08:00N 44°42' E 020°58'1 1.3
2018-Jun-13 07:30N 44°42' E 020°58'2 0.4
2018-Jun-13 01:45N 44°41' E 020°56'1 5.2
2018-Jun-13 01:30N 44°42' E 020°57'1 2.6
2018-Jun-13 01:00N 44°42' E 020°59'0 0.0
2018-Jun-13 00:30N 44°42' E 020°59'0 0.2
2018-Jun-13 00:01N 44°42' E 020°58'0 0.4
2018-Jun-12 23:30N 44°42' E 020°58'1 1.8
2018-Jun-12 23:00N 44°42' E 020°57'1 2.5
2018-Jun-12 22:30N 44°43' E 020°59'4 5.5
2018-Jun-12 21:52N 44°40' E 020°55'0 0.2
2018-Jun-12 21:31N 44°40' E 020°55'0 0.0
2018-Jun-12 21:01N 44°40' E 020°55'3 6.5
2018-Jun-12 20:31N 44°39' E 020°51'4 7.4
2018-Jun-12 20:00N 44°40' E 020°46'4 7.2
2018-Jun-12 19:30N 44°42' E 020°42'4 7.1
2018-Jun-12 19:01N 44°45' E 020°39'3 6.6
2018-Jun-12 18:31N 44°48' E 020°38'3 5.0
2018-Jun-12 18:01N 44°51' E 020°38'0 0.1
2018-Jun-12 17:30N 44°51' E 020°38'0 0.0
2018-Jun-12 17:00N 44°51' E 020°38'0 0.0
2018-Jun-12 16:31N 44°51' E 020°38'0 0.0
2018-Jun-12 16:01N 44°51' E 020°38'0 0.0
2018-Jun-12 15:31N 44°51' E 020°38'0 0.1
2018-Jun-12 15:01N 44°51' E 020°38'1 1.1
2018-Jun-12 14:31N 44°50' E 020°38'0 0.4
2018-Jun-12 14:01N 44°50' E 020°39'1 2.7
2018-Jun-12 13:31N 44°51' E 020°38'1 1.4
2018-Jun-12 13:01N 44°51' E 020°38'1 1.1
2018-Jun-12 12:31N 44°50' E 020°38'1 2.4
2018-Jun-12 12:01N 44°51' E 020°38'0 0.1
2018-Jun-12 11:31N 44°51' E 020°38'0 0.0
2018-Jun-12 11:00N 44°51' E 020°38'0 0.0
2018-Jun-12 10:30N 44°51' E 020°38'0 0.0
2018-Jun-12 10:01N 44°51' E 020°38'0 0.0
2018-Jun-12 09:30N 44°51' E 020°38'0 0.0
2018-Jun-12 09:00N 44°51' E 020°38'0 0.0
2018-Jun-12 08:30N 44°51' E 020°38'0 0.0
2018-Jun-12 08:00N 44°51' E 020°38'0 0.0
2018-Jun-12 07:31N 44°51' E 020°38'0 0.0
2018-Jun-12 07:00N 44°51' E 020°38'0 0.0
2018-Jun-12 06:30N 44°51' E 020°38'0 0.0
2018-Jun-12 06:01N 44°51' E 020°38'0 0.0
2018-Jun-12 05:30N 44°51' E 020°38'0 0.0
2018-Jun-12 05:00N 44°51' E 020°38'0 0.0
2018-Jun-12 04:31N 44°51' E 020°38'0 0.0
2018-Jun-12 04:00N 44°51' E 020°38'0 0.0
2018-Jun-12 03:30N 44°51' E 020°38'0 0.0
2018-Jun-12 03:01N 44°51' E 020°38'0 0.0
2018-Jun-12 02:31N 44°51' E 020°38'0 0.0
2018-Jun-12 02:00N 44°51' E 020°38'0 0.0
2018-Jun-12 01:30N 44°51' E 020°38'0 0.0
2018-Jun-12 01:00N 44°51' E 020°38'0 0.0
2018-Jun-12 00:30N 44°51' E 020°38'0 0.0
2018-Jun-12 00:01N 44°51' E 020°38'0 0.0
2018-Jun-11 23:30N 44°51' E 020°38'0 0.0
2018-Jun-11 23:00N 44°51' E 020°38'0 0.0
2018-Jun-11 22:31N 44°51' E 020°38'0 0.0
2018-Jun-11 22:00N 44°51' E 020°38'0 0.0
2018-Jun-11 21:30N 44°51' E 020°38'0 0.0
2018-Jun-11 21:00N 44°51' E 020°38'0 0.0
2018-Jun-11 20:30N 44°51' E 020°38'0 0.0
2018-Jun-11 20:01N 44°51' E 020°38'0 0.0
2018-Jun-11 19:30N 44°51' E 020°38'0 0.0
2018-Jun-11 19:00N 44°51' E 020°38'0 0.0
2018-Jun-11 18:31N 44°51' E 020°38'0 0.0
2018-Jun-11 18:01N 44°51' E 020°38'0 0.0
2018-Jun-11 17:31N 44°51' E 020°38'0 0.0
2018-Jun-11 17:01N 44°51' E 020°38'0 0.0
2018-Jun-11 16:30N 44°51' E 020°38'0 0.0
2018-Jun-11 16:01N 44°51' E 020°38'0 0.0
2018-Jun-11 15:31N 44°51' E 020°38'0 0.0
2018-Jun-11 15:00N 44°51' E 020°38'0 0.0
2018-Jun-11 14:31N 44°51' E 020°38'0 0.0
2018-Jun-11 14:01N 44°51' E 020°38'0 0.0
2018-Jun-11 13:30N 44°51' E 020°38'0 0.0
2018-Jun-11 13:01N 44°51' E 020°38'0 0.0
2018-Jun-11 12:31N 44°51' E 020°38'0 0.0
2018-Jun-11 12:01N 44°51' E 020°38'0 0.0
2018-Jun-11 11:31N 44°51' E 020°38'0 0.0
2018-Jun-11 11:00N 44°51' E 020°38'0 0.0
2018-Jun-11 10:31N 44°51' E 020°38'0 0.0
2018-Jun-11 10:01N 44°51' E 020°38'0 0.0
2018-Jun-11 09:31N 44°51' E 020°38'0 0.0
2018-Jun-11 09:01N 44°51' E 020°38'1 1.2
2018-Jun-11 08:31N 44°51' E 020°38'1 2.6
2018-Jun-11 08:01N 44°50' E 020°39'  
Track history (hours):
 
Tides and Currents Weather Stations Pressure Air Temp Water Temp Dewpoint Dewpoint Depression Visibility Wind Speed Wind Dir Waves Ship Positions

Raska

Last reported at 2018-Jun-21 04:30 UTC. Time now 2018-Jun-21 04:42 UTC.
Position N 44°51' E 020°38'.

Length 16 m; draft 1.4 m.

Type: Wing in ground effect craft. MMSI: 279202162.

Date/timePositionNaut miles runAvg speedWind from/ knotsBaromVisibWave heightAir tempDewpointWater temp
2018-Jun-21 04:30N 44°51' E 020°38'0 0.0
2018-Jun-21 04:00N 44°51' E 020°38'0 0.0
2018-Jun-21 03:30N 44°51' E 020°38'0 0.0
2018-Jun-21 03:00N 44°51' E 020°38'0 0.0
2018-Jun-21 02:31N 44°51' E 020°38'0 0.0
2018-Jun-21 02:00N 44°51' E 020°38'0 0.0
2018-Jun-21 01:30N 44°51' E 020°38'0 0.0
2018-Jun-21 01:00N 44°51' E 020°38'0 0.0
2018-Jun-21 00:30N 44°51' E 020°38'0 0.0
2018-Jun-21 00:01N 44°51' E 020°38'0 0.0
2018-Jun-20 23:30N 44°51' E 020°38'0 0.0
2018-Jun-20 22:59N 44°51' E 020°38'0 0.0
2018-Jun-20 22:30N 44°51' E 020°38'0 0.0
2018-Jun-20 21:58N 44°51' E 020°38'0 0.0
2018-Jun-20 21:30N 44°51' E 020°38'0 0.0
2018-Jun-20 21:00N 44°51' E 020°38'0 0.5
2018-Jun-20 20:31N 44°51' E 020°38'3 6.6
2018-Jun-20 20:01N 44°51' E 020°34'2 4.0
2018-Jun-20 19:31N 44°50' E 020°31'0 0.0
2018-Jun-20 19:01N 44°50' E 020°31'0 0.0
2018-Jun-20 18:31N 44°50' E 020°31'0 0.1
2018-Jun-20 18:01N 44°50' E 020°31'1 2.4
2018-Jun-20 17:30N 44°50' E 020°33'1 2.8
2018-Jun-20 17:01N 44°51' E 020°35'2 3.2
2018-Jun-20 16:31N 44°50' E 020°37'1 2.3
2018-Jun-20 16:01N 44°50' E 020°38'0 0.3
2018-Jun-20 15:30N 44°50' E 020°38'0 0.2
2018-Jun-20 15:00N 44°50' E 020°38'0 0.0
2018-Jun-20 14:30N 44°50' E 020°38'0 0.1
2018-Jun-20 14:01N 44°50' E 020°38'0 0.3
2018-Jun-20 13:31N 44°50' E 020°38'0 0.0
2018-Jun-20 13:00N 44°50' E 020°38'0 0.0
2018-Jun-20 12:30N 44°50' E 020°38'0 0.3
2018-Jun-20 12:00N 44°50' E 020°38'0 0.0
2018-Jun-20 11:30N 44°50' E 020°38'0 0.0
2018-Jun-20 11:00N 44°50' E 020°38'0 0.0
2018-Jun-20 10:30N 44°50' E 020°38'0 0.3
2018-Jun-20 10:00N 44°50' E 020°38'0 0.2
2018-Jun-20 09:31N 44°50' E 020°38'0 0.8
2018-Jun-20 09:01N 44°50' E 020°39'0 0.3
2018-Jun-20 08:31N 44°50' E 020°39'0 0.6
2018-Jun-20 08:01N 44°50' E 020°38'0 0.3
2018-Jun-20 07:31N 44°50' E 020°38'0 0.0
2018-Jun-20 07:01N 44°50' E 020°38'0 0.0
2018-Jun-20 06:30N 44°50' E 020°38'0 0.8
2018-Jun-20 06:01N 44°50' E 020°38'1 2.0
2018-Jun-20 05:31N 44°51' E 020°38'0 0.0
2018-Jun-20 05:01N 44°51' E 020°38'0 0.0
2018-Jun-20 04:31N 44°51' E 020°38'0 0.0
2018-Jun-20 04:01N 44°51' E 020°38'0 0.0
2018-Jun-20 03:31N 44°51' E 020°38'0 0.0
2018-Jun-20 03:01N 44°51' E 020°38'0 0.0
2018-Jun-20 02:31N 44°51' E 020°38'0 0.0
2018-Jun-20 02:00N 44°51' E 020°38'0 0.0
2018-Jun-20 01:30N 44°51' E 020°38'0 0.0
2018-Jun-20 01:01N 44°51' E 020°38'0 0.0
2018-Jun-20 00:30N 44°51' E 020°38'0 0.0
2018-Jun-20 00:00N 44°51' E 020°38'0 0.0
2018-Jun-19 23:31N 44°51' E 020°38'0 0.0
2018-Jun-19 23:01N 44°51' E 020°38'0 0.0
2018-Jun-19 22:31N 44°51' E 020°38'0 0.0
2018-Jun-19 22:01N 44°51' E 020°38'0 0.0
2018-Jun-19 21:31N 44°51' E 020°38'0 0.0
2018-Jun-19 21:01N 44°51' E 020°38'0 0.0
2018-Jun-19 20:31N 44°51' E 020°38'0 0.0
2018-Jun-19 20:00N 44°51' E 020°38'0 0.0
2018-Jun-19 19:31N 44°51' E 020°38'0 0.0
2018-Jun-19 19:01N 44°51' E 020°38'0 0.0
2018-Jun-19 18:31N 44°51' E 020°38'1 1.4
2018-Jun-19 18:01N 44°51' E 020°38'1 1.3
2018-Jun-19 17:31N 44°50' E 020°38'0 0.7
2018-Jun-19 17:01N 44°50' E 020°39'0 0.4
2018-Jun-19 16:31N 44°50' E 020°39'0 0.1
2018-Jun-19 16:01N 44°50' E 020°39'1 1.2
2018-Jun-19 15:31N 44°50' E 020°38'0 0.1
2018-Jun-19 15:01N 44°50' E 020°38'0 0.4
2018-Jun-19 14:30N 44°50' E 020°39'1 2.7
2018-Jun-19 14:01N 44°51' E 020°38'0 0.0
2018-Jun-19 13:31N 44°51' E 020°38'0 0.0
2018-Jun-19 13:01N 44°51' E 020°38'1 2.8
2018-Jun-19 12:31N 44°50' E 020°38'0 0.6
2018-Jun-19 12:00N 44°50' E 020°39'0 0.1
2018-Jun-19 11:30N 44°50' E 020°39'0 0.8
2018-Jun-19 11:00N 44°50' E 020°38'0 0.6
2018-Jun-19 10:30N 44°50' E 020°38'2 3.2
2018-Jun-19 10:00N 44°51' E 020°38'1 2.3
2018-Jun-19 09:30N 44°50' E 020°38'0 0.4
2018-Jun-19 09:00N 44°50' E 020°38'0 0.1
2018-Jun-19 08:30N 44°50' E 020°38'0 0.0
2018-Jun-19 08:00N 44°50' E 020°38'1 1.0
2018-Jun-19 07:30N 44°50' E 020°39'0 0.1
2018-Jun-19 07:00N 44°50' E 020°39'2 3.3
2018-Jun-19 06:31N 44°51' E 020°38'0 0.4
2018-Jun-19 06:01N 44°51' E 020°38'0 0.0
2018-Jun-19 05:31N 44°51' E 020°38'0 0.0
2018-Jun-19 05:00N 44°51' E 020°38'0 0.0
2018-Jun-19 04:30N 44°51' E 020°38'0 0.0
2018-Jun-19 04:01N 44°51' E 020°38'0 0.0
2018-Jun-19 03:31N 44°51' E 020°38'0 0.0
2018-Jun-19 03:01N 44°51' E 020°38'0 0.0
2018-Jun-19 02:30N 44°51' E 020°38'0 0.0
2018-Jun-19 02:01N 44°51' E 020°38'0 0.0
2018-Jun-19 01:30N 44°51' E 020°38'0 0.0
2018-Jun-19 01:00N 44°51' E 020°38'0 0.0
2018-Jun-19 00:30N 44°51' E 020°38'0 0.0
2018-Jun-19 00:00N 44°51' E 020°38'0 0.0
2018-Jun-18 23:31N 44°51' E 020°38'0 0.0
2018-Jun-18 23:01N 44°51' E 020°38'0 0.0
2018-Jun-18 22:31N 44°51' E 020°38'0 0.0
2018-Jun-18 22:01N 44°51' E 020°38'0 0.0
2018-Jun-18 21:30N 44°51' E 020°38'0 0.0
2018-Jun-18 21:00N 44°51' E 020°38'0 0.0
2018-Jun-18 20:30N 44°51' E 020°38'0 0.0
2018-Jun-18 20:01N 44°51' E 020°38'0 0.0
2018-Jun-18 19:31N 44°51' E 020°38'0 0.0
2018-Jun-18 19:01N 44°51' E 020°38'0 0.0
2018-Jun-18 18:30N 44°51' E 020°38'0 0.0
2018-Jun-18 18:00N 44°51' E 020°38'1 2.5
2018-Jun-18 17:30N 44°50' E 020°38'0 0.0
2018-Jun-18 17:01N 44°50' E 020°38'0 0.0
2018-Jun-18 16:31N 44°50' E 020°38'0 0.0
2018-Jun-18 16:01N 44°50' E 020°38'0 0.0
2018-Jun-18 15:31N 44°50' E 020°38'0 0.0
2018-Jun-18 15:01N 44°50' E 020°38'0 0.8
2018-Jun-18 14:31N 44°51' E 020°38'0 0.9
2018-Jun-18 14:01N 44°50' E 020°38'0 0.1
2018-Jun-18 13:31N 44°50' E 020°38'0 0.1
2018-Jun-18 13:01N 44°50' E 020°38'0 0.2
2018-Jun-18 12:31N 44°50' E 020°38'0 0.7
2018-Jun-18 12:01N 44°50' E 020°39'0 0.0
2018-Jun-18 11:31N 44°50' E 020°39'1 1.1
2018-Jun-18 11:00N 44°50' E 020°38'0 0.2
2018-Jun-18 10:30N 44°50' E 020°38'0 0.0
2018-Jun-18 10:00N 44°50' E 020°38'0 0.0
2018-Jun-18 09:30N 44°50' E 020°38'0 0.1
2018-Jun-18 09:00N 44°50' E 020°38'0 0.1
2018-Jun-18 08:30N 44°50' E 020°38'0 0.1
2018-Jun-18 08:00N 44°50' E 020°38'1 1.2
2018-Jun-18 07:30N 44°50' E 020°39'1 2.3
2018-Jun-18 07:00N 44°51' E 020°38'1 1.0
2018-Jun-18 06:17N 44°51' E 020°38'0 0.1
2018-Jun-18 06:00N 44°51' E 020°38'0 0.0
2018-Jun-18 05:30N 44°51' E 020°38'0 0.0
2018-Jun-18 04:59N 44°51' E 020°38'0 0.0
2018-Jun-18 04:30N 44°51' E 020°38'0 0.0
2018-Jun-18 04:00N 44°51' E 020°38'0 0.0
2018-Jun-18 03:28N 44°51' E 020°38'0 0.0
2018-Jun-18 02:59N 44°51' E 020°38'0 0.0
2018-Jun-18 02:30N 44°51' E 020°38'0 0.0
2018-Jun-18 01:57N 44°51' E 020°38'0 0.0
2018-Jun-18 01:30N 44°51' E 020°38'0 0.0
2018-Jun-18 01:00N 44°51' E 020°38'0 0.0
2018-Jun-18 00:17N 44°51' E 020°38'0 0.0
2018-Jun-17 23:58N 44°51' E 020°38'0 0.0
2018-Jun-17 23:30N 44°51' E 020°38'0 0.0
2018-Jun-17 23:00N 44°51' E 020°38'0 0.0
2018-Jun-17 22:28N 44°51' E 020°38'0 0.0
2018-Jun-17 22:00N 44°51' E 020°38'0 0.0
2018-Jun-17 21:02N 44°51' E 020°38'0 0.0
2018-Jun-17 20:42N 44°51' E 020°38'0 0.0
2018-Jun-17 20:25N 44°51' E 020°38'0 0.0
2018-Jun-17 19:59N 44°51' E 020°38'0 0.0
2018-Jun-17 19:28N 44°51' E 020°38'0 0.0
2018-Jun-17 18:38N 44°51' E 020°38'0 0.0
2018-Jun-17 18:30N 44°51' E 020°38'0 0.0
2018-Jun-17 18:00N 44°51' E 020°38'0 0.0
2018-Jun-17 17:31N 44°51' E 020°38'0 0.0
2018-Jun-17 17:00N 44°51' E 020°38'0 0.0
2018-Jun-17 16:30N 44°51' E 020°38'1 2.5
2018-Jun-17 16:00N 44°50' E 020°38'0 0.3
2018-Jun-17 15:30N 44°50' E 020°38'0 0.4
2018-Jun-17 15:00N 44°50' E 020°38'0 0.4
2018-Jun-17 14:30N 44°50' E 020°38'1 2.3
2018-Jun-17 14:00N 44°51' E 020°38'2 3.4
2018-Jun-17 13:30N 44°50' E 020°39'0 0.0
2018-Jun-17 13:00N 44°50' E 020°39'0 0.0
2018-Jun-17 12:30N 44°50' E 020°39'0 0.0
2018-Jun-17 12:00N 44°50' E 020°39'1 1.2
2018-Jun-17 11:30N 44°50' E 020°38'0 0.0
2018-Jun-17 11:00N 44°50' E 020°38'0 0.3
2018-Jun-17 10:31N 44°50' E 020°38'0 0.0
2018-Jun-17 10:01N 44°50' E 020°38'0 0.2
2018-Jun-17 09:31N 44°50' E 020°38'0 0.1
2018-Jun-17 09:00N 44°50' E 020°38'0 0.0
2018-Jun-17 08:31N 44°50' E 020°38'1 1.0
2018-Jun-17 08:01N 44°50' E 020°39'0 0.2
2018-Jun-17 07:31N 44°50' E 020°39'0 0.2
2018-Jun-17 07:01N 44°50' E 020°39'0 0.1
2018-Jun-17 06:30N 44°50' E 020°39'2 3.5
2018-Jun-17 06:01N 44°51' E 020°38'0 0.0
2018-Jun-17 05:31N 44°51' E 020°38'0 0.0
2018-Jun-17 05:00N 44°51' E 020°38'0 0.0
2018-Jun-17 04:31N 44°51' E 020°38'0 0.0
2018-Jun-17 04:01N 44°51' E 020°38'0 0.0
2018-Jun-17 03:30N 44°51' E 020°38'0 0.0
2018-Jun-17 03:00N 44°51' E 020°38'0 0.0
2018-Jun-17 02:29N 44°51' E 020°38'0 0.0
2018-Jun-17 01:59N 44°51' E 020°38'0 0.0
2018-Jun-17 01:30N 44°51' E 020°38'0 0.0
2018-Jun-17 01:00N 44°51' E 020°38'0 0.1
2018-Jun-17 00:31N 44°51' E 020°38'3 4.9
2018-Jun-17 00:00N 44°49' E 020°38'3 5.1
2018-Jun-16 23:30N 44°46' E 020°38'6 4.9
2018-Jun-16 22:21N 44°42' E 020°43'2 5.0
2018-Jun-16 22:00N 44°41' E 020°45'2 4.5
2018-Jun-16 21:30N 44°40' E 020°47'2 4.9
2018-Jun-16 21:00N 44°40' E 020°51'2 4.9
2018-Jun-16 20:30N 44°40' E 020°54'1 1.4
2018-Jun-16 20:00N 44°40' E 020°55'2 3.1
2018-Jun-16 19:31N 44°41' E 020°56'1 1.6
2018-Jun-16 19:00N 44°42' E 020°57'0 0.0
2018-Jun-16 18:31N 44°42' E 020°57'0 0.0
2018-Jun-16 18:01N 44°42' E 020°57'0 0.3
2018-Jun-16 17:31N 44°42' E 020°58'0 0.3
2018-Jun-16 17:00N 44°42' E 020°57'0 0.0
2018-Jun-16 16:30N 44°42' E 020°57'0 0.0
2018-Jun-16 16:01N 44°42' E 020°57'0 0.0
2018-Jun-16 15:31N 44°42' E 020°57'0 0.0
2018-Jun-16 15:01N 44°42' E 020°57'0 0.0
2018-Jun-16 14:31N 44°42' E 020°57'0 0.0
2018-Jun-16 14:01N 44°42' E 020°57'0 0.0
2018-Jun-16 13:30N 44°42' E 020°57'0 0.0
2018-Jun-16 13:01N 44°42' E 020°57'0 0.0
2018-Jun-16 12:30N 44°42' E 020°57'0 0.0
2018-Jun-16 11:55N 44°42' E 020°57'0 0.0
2018-Jun-16 11:31N 44°42' E 020°57'0 0.0
2018-Jun-16 11:00N 44°42' E 020°57'0 0.0
2018-Jun-16 10:30N 44°42' E 020°57'0 0.0
2018-Jun-15 20:48N 44°42' E 020°57'0 0.3
2018-Jun-15 20:30N 44°42' E 020°58'1 1.6
2018-Jun-15 20:01N 44°42' E 020°58'0 0.3
2018-Jun-15 19:31N 44°42' E 020°58'1 1.6
2018-Jun-15 19:00N 44°42' E 020°58'0 0.1
2018-Jun-15 18:29N 44°42' E 020°57'0 0.1
2018-Jun-15 18:01N 44°42' E 020°58'0 0.1
2018-Jun-15 17:30N 44°42' E 020°58'0 0.0
2018-Jun-15 17:00N 44°42' E 020°58'0 0.0
2018-Jun-15 16:30N 44°42' E 020°58'1 1.5
2018-Jun-15 16:00N 44°42' E 020°58'1 1.2
2018-Jun-15 15:30N 44°42' E 020°58'0 0.2
2018-Jun-15 15:00N 44°42' E 020°57'2 0.1
2018-Jun-14 22:14N 44°40' E 020°55'0 0.0
2018-Jun-14 22:00N 44°40' E 020°55'0 0.0
2018-Jun-14 21:30N 44°40' E 020°55'0 0.0
2018-Jun-14 21:00N 44°40' E 020°55'0 0.0
2018-Jun-14 20:30N 44°40' E 020°55'0 0.0
2018-Jun-14 20:00N 44°40' E 020°55'0 0.0
2018-Jun-14 19:30N 44°40' E 020°55'0 0.0
2018-Jun-14 19:00N 44°40' E 020°55'0 0.0
2018-Jun-14 18:30N 44°40' E 020°55'0 0.0
2018-Jun-14 18:00N 44°40' E 020°55'0 0.0
2018-Jun-14 17:30N 44°40' E 020°55'0 0.0
2018-Jun-14 17:00N 44°40' E 020°55'0 0.0
2018-Jun-14 16:31N 44°40' E 020°55'0 0.0
2018-Jun-14 16:01N 44°40' E 020°55'0 0.0
2018-Jun-14 15:31N 44°40' E 020°55'0 0.0
2018-Jun-14 15:00N 44°40' E 020°55'0 0.0
2018-Jun-14 14:30N 44°40' E 020°55'0 0.0
2018-Jun-14 14:01N 44°40' E 020°55'0 0.0
2018-Jun-14 13:30N 44°40' E 020°55'0 0.0
2018-Jun-14 13:00N 44°40' E 020°55'0 0.0
2018-Jun-14 12:30N 44°40' E 020°55'0 0.0
2018-Jun-14 12:00N 44°40' E 020°55'0 0.0
2018-Jun-14 11:30N 44°40' E 020°55'0 0.0
2018-Jun-14 11:00N 44°40' E 020°55'0 0.0
2018-Jun-14 10:30N 44°40' E 020°55'0 0.0
2018-Jun-14 10:00N 44°40' E 020°55'0 0.0
2018-Jun-14 09:30N 44°40' E 020°55'0 0.0
2018-Jun-14 09:00N 44°40' E 020°55'0 0.0
2018-Jun-14 08:30N 44°40' E 020°55'0 0.0
2018-Jun-14 08:00N 44°40' E 020°55'0 0.0
2018-Jun-14 07:17N 44°40' E 020°55'0 0.0
2018-Jun-13 23:38N 44°40' E 020°55'0 0.0
2018-Jun-13 23:30N 44°40' E 020°55'0 0.0
2018-Jun-13 23:00N 44°40' E 020°55'0 0.0
2018-Jun-13 22:30N 44°40' E 020°55'0 0.0
2018-Jun-13 22:00N 44°40' E 020°55'0 0.0
2018-Jun-13 21:30N 44°40' E 020°55'0 0.0
2018-Jun-13 21:00N 44°40' E 020°55'0 0.0
2018-Jun-13 20:30N 44°40' E 020°55'0 0.0
2018-Jun-13 20:00N 44°40' E 020°55'0 0.0
2018-Jun-13 19:30N 44°40' E 020°55'0 0.0
2018-Jun-13 19:00N 44°40' E 020°55'0 0.0
2018-Jun-13 18:30N 44°40' E 020°55'0 0.0
2018-Jun-13 18:00N 44°40' E 020°55'0 0.0
2018-Jun-13 17:30N 44°40' E 020°55'0 0.0
2018-Jun-13 17:01N 44°40' E 020°55'0 0.0
2018-Jun-13 16:30N 44°40' E 020°55'0 0.0
2018-Jun-13 16:00N 44°40' E 020°55'0 0.0
2018-Jun-13 15:30N 44°40' E 020°55'0 0.0
2018-Jun-13 15:00N 44°40' E 020°55'0 0.0
2018-Jun-13 14:30N 44°40' E 020°55'0 0.0
2018-Jun-13 14:00N 44°40' E 020°55'0 0.0
2018-Jun-13 13:30N 44°40' E 020°55'0 0.0
2018-Jun-13 13:00N 44°40' E 020°55'0 0.1
2018-Jun-13 12:31N 44°40' E 020°55'2 3.9
2018-Jun-13 12:01N 44°41' E 020°57'0 0.7
2018-Jun-13 11:30N 44°42' E 020°57'0 0.2
2018-Jun-13 11:01N 44°42' E 020°58'0 0.0
2018-Jun-13 10:30N 44°42' E 020°58'0 0.0
2018-Jun-13 09:54N 44°42' E 020°57'0 0.0
2018-Jun-13 09:31N 44°42' E 020°57'0 0.0
2018-Jun-13 09:00N 44°42' E 020°57'0 0.0
2018-Jun-13 08:30N 44°42' E 020°57'0 0.1
2018-Jun-13 08:00N 44°42' E 020°58'1 1.3
2018-Jun-13 07:30N 44°42' E 020°58'2 0.4
2018-Jun-13 01:45N 44°41' E 020°56'1 5.2
2018-Jun-13 01:30N 44°42' E 020°57'1 2.6
2018-Jun-13 01:00N 44°42' E 020°59'0 0.0
2018-Jun-13 00:30N 44°42' E 020°59'0 0.2
2018-Jun-13 00:01N 44°42' E 020°58'0 0.4
2018-Jun-12 23:30N 44°42' E 020°58'1 1.8
2018-Jun-12 23:00N 44°42' E 020°57'1 2.5
2018-Jun-12 22:30N 44°43' E 020°59'4 5.5
2018-Jun-12 21:52N 44°40' E 020°55'0 0.2
2018-Jun-12 21:31N 44°40' E 020°55'0 0.0
2018-Jun-12 21:01N 44°40' E 020°55'3 6.5
2018-Jun-12 20:31N 44°39' E 020°51'4 7.4
2018-Jun-12 20:00N 44°40' E 020°46'4 7.2
2018-Jun-12 19:30N 44°42' E 020°42'4 7.1
2018-Jun-12 19:01N 44°45' E 020°39'3 6.6
2018-Jun-12 18:31N 44°48' E 020°38'3 5.0
2018-Jun-12 18:01N 44°51' E 020°38'0 0.1
2018-Jun-12 17:30N 44°51' E 020°38'0 0.0
2018-Jun-12 17:00N 44°51' E 020°38'0 0.0
2018-Jun-12 16:31N 44°51' E 020°38'0 0.0
2018-Jun-12 16:01N 44°51' E 020°38'0 0.0
2018-Jun-12 15:31N 44°51' E 020°38'0 0.1
2018-Jun-12 15:01N 44°51' E 020°38'1 1.1
2018-Jun-12 14:31N 44°50' E 020°38'0 0.4
2018-Jun-12 14:01N 44°50' E 020°39'1 2.7
2018-Jun-12 13:31N 44°51' E 020°38'1 1.4
2018-Jun-12 13:01N 44°51' E 020°38'1 1.1
2018-Jun-12 12:31N 44°50' E 020°38'1 2.4
2018-Jun-12 12:01N 44°51' E 020°38'0 0.1
2018-Jun-12 11:31N 44°51' E 020°38'0 0.0
2018-Jun-12 11:00N 44°51' E 020°38'0 0.0
2018-Jun-12 10:30N 44°51' E 020°38'0 0.0
2018-Jun-12 10:01N 44°51' E 020°38'0 0.0
2018-Jun-12 09:30N 44°51' E 020°38'0 0.0
2018-Jun-12 09:00N 44°51' E 020°38'0 0.0
2018-Jun-12 08:30N 44°51' E 020°38'0 0.0
2018-Jun-12 08:00N 44°51' E 020°38'0 0.0
2018-Jun-12 07:31N 44°51' E 020°38'0 0.0
2018-Jun-12 07:00N 44°51' E 020°38'0 0.0
2018-Jun-12 06:30N 44°51' E 020°38'0 0.0
2018-Jun-12 06:01N 44°51' E 020°38'0 0.0
2018-Jun-12 05:30N 44°51' E 020°38'0 0.0
2018-Jun-12 05:00N 44°51' E 020°38'0 0.0
2018-Jun-12 04:31N 44°51' E 020°38'0 0.0
2018-Jun-12 04:00N 44°51' E 020°38'0 0.0
2018-Jun-12 03:30N 44°51' E 020°38'0 0.0
2018-Jun-12 03:01N 44°51' E 020°38'0 0.0
2018-Jun-12 02:31N 44°51' E 020°38'0 0.0
2018-Jun-12 02:00N 44°51' E 020°38'0 0.0
2018-Jun-12 01:30N 44°51' E 020°38'0 0.0
2018-Jun-12 01:00N 44°51' E 020°38'0 0.0
2018-Jun-12 00:30N 44°51' E 020°38'0 0.0
2018-Jun-12 00:01N 44°51' E 020°38'0 0.0
2018-Jun-11 23:30N 44°51' E 020°38'0 0.0
2018-Jun-11 23:00N 44°51' E 020°38'0 0.0
2018-Jun-11 22:31N 44°51' E 020°38'0 0.0
2018-Jun-11 22:00N 44°51' E 020°38'0 0.0
2018-Jun-11 21:30N 44°51' E 020°38'0 0.0
2018-Jun-11 21:00N 44°51' E 020°38'0 0.0
2018-Jun-11 20:30N 44°51' E 020°38'0 0.0
2018-Jun-11 20:01N 44°51' E 020°38'0 0.0
2018-Jun-11 19:30N 44°51' E 020°38'0 0.0
2018-Jun-11 19:00N 44°51' E 020°38'0 0.0
2018-Jun-11 18:31N 44°51' E 020°38'0 0.0
2018-Jun-11 18:01N 44°51' E 020°38'0 0.0
2018-Jun-11 17:31N 44°51' E 020°38'0 0.0
2018-Jun-11 17:01N 44°51' E 020°38'0 0.0
2018-Jun-11 16:30N 44°51' E 020°38'0 0.0
2018-Jun-11 16:01N 44°51' E 020°38'0 0.0
2018-Jun-11 15:31N 44°51' E 020°38'0 0.0
2018-Jun-11 15:00N 44°51' E 020°38'0 0.0
2018-Jun-11 14:31N 44°51' E 020°38'0 0.0
2018-Jun-11 14:01N 44°51' E 020°38'0 0.0
2018-Jun-11 13:30N 44°51' E 020°38'0 0.0
2018-Jun-11 13:01N 44°51' E 020°38'0 0.0
2018-Jun-11 12:31N 44°51' E 020°38'0 0.0
2018-Jun-11 12:01N 44°51' E 020°38'0 0.0
2018-Jun-11 11:31N 44°51' E 020°38'0 0.0
2018-Jun-11 11:00N 44°51' E 020°38'0 0.0
2018-Jun-11 10:31N 44°51' E 020°38'0 0.0
2018-Jun-11 10:01N 44°51' E 020°38'0 0.0
2018-Jun-11 09:31N 44°51' E 020°38'0 0.0
2018-Jun-11 09:01N 44°51' E 020°38'1 1.2
2018-Jun-11 08:31N 44°51' E 020°38'1 2.6
2018-Jun-11 08:01N 44°50' E 020°39'  

Dump ship's entire track history